OIHH

Details ICAO OIHH (HDM)
Name HAMADAN
Region Iran
Timezone Asia/Tehran (UTC+3.5)
Plans Departing 5
Arriving 15
Stats Elevation 5,755 ft / 1,754 m (AMSL)
Location 34.867326° 48.556359°
Runways 1
Magnetic Variation 4.696° E
Sunrise 2017-12-13 03:46:03 UTC / 2017-12-13 07:16:03 Local
Sunset 2017-12-13 13:36:37 UTC / 2017-12-13 17:06:37 Local
Advertisement - Login to hide

Runways

ID Width Length Bearing (true) Bearing (mag) Surface Threshold Offset Overrun Length
10 148 ft / 45 m 10,593 ft / 3,229 m 104.94° 100.24° Asphalt 987 ft / 301 m 197 ft / 60 m
28 148 ft / 45 m 10,593 ft / 3,229 m 284.96° 280.26° Asphalt 0 ft / 0 m 197 ft / 60 m

Map

Weather


0- 5 10 15 20 25 30 35+ Temperature / ° C

Clouds and Precipitation
Forecast for 2017-12-13 12:00 UTC. Updated 20 minutes ago

Ground ~20,000 ft ~40,000 ft Winds

METAR

OIHH 130650Z 16002KT CAVOK 06/M07 Q1025

TAF

Not found

Frequencies

Tower 121.90 MHz TWR
Tower 123.50 MHz TWR
Warning: Do not use this data for real-world aviation or navigation. No guarantee of current accuracy is given.